Time;durP1;ratioP1;P1;durP2;ratioP2;P2;SDS_P1;SDS_P2;PMS_P1;PMS_P2;Temp;Humidity;BMP_temperature;BMP_pressure;BME280_temperature;BME280_humidity;BME280_pressure;Samples;Min_cycle;Max_cycle;Signal;HPM_P1;HPM_P2
2023/09/19 00:00:41;;;;;;;5.55;2.80;;;17.00;99.90;;;;;;5034432;28;20196;-80
2023/09/19 00:03:11;;;;;;;5.40;2.15;;;16.90;99.90;;;;;;5020094;28;20215;-79
2023/09/19 00:05:44;;;;;;;3.95;2.00;;;16.80;99.90;;;;;;5016667;28;20223;-79
2023/09/19 00:08:13;;;;;;;5.13;2.17;;;16.80;99.90;;;;;;5019905;28;20206;-80
2023/09/19 00:10:41;;;;;;;4.72;2.20;;;16.70;99.90;;;;;;5018918;28;20208;-79
2023/09/19 00:13:13;;;;;;;6.82;2.28;;;16.80;99.90;;;;;;5020259;28;20203;-79
2023/09/19 00:15:41;;;;;;;4.30;2.40;;;16.80;99.90;;;;;;5019724;28;20224;-79
2023/09/19 00:18:10;;;;;;;5.45;2.15;;;16.80;99.90;;;;;;5019755;28;20199;-79
2023/09/19 00:20:39;;;;;;;4.93;2.28;;;16.80;99.90;;;;;;5018493;28;20196;-79
2023/09/19 00:23:08;;;;;;;9.55;2.33;;;16.60;99.90;;;;;;5018279;28;20199;-79
2023/09/19 00:25:37;;;;;;;10.63;2.10;;;16.60;99.90;;;;;;5035923;28;20215;-79
2023/09/19 00:28:06;;;;;;;6.50;2.30;;;16.60;99.90;;;;;;5034824;28;20206;-79
2023/09/19 00:30:33;;;;;;;4.13;2.05;;;16.50;99.90;;;;;;5017949;28;20196;-79
2023/09/19 00:33:05;;;;;;;7.57;2.63;;;16.60;99.90;;;;;;5010649;28;20196;-79
2023/09/19 00:35:34;;;;;;;5.82;2.40;;;16.60;99.90;;;;;;5018250;28;20228;-79
2023/09/19 00:38:03;;;;;;;10.50;2.50;;;16.50;99.90;;;;;;5018785;28;20207;-79
2023/09/19 00:40:32;;;;;;;6.40;2.50;;;16.50;99.90;;;;;;5018691;28;20554;-79
2023/09/19 00:43:01;;;;;;;7.45;2.10;;;16.40;99.90;;;;;;5019157;28;20206;-79
2023/09/19 00:45:29;;;;;;;6.75;2.92;;;16.40;99.90;;;;;;5018765;28;20211;-79
2023/09/19 00:47:57;;;;;;;7.82;2.78;;;16.40;99.90;;;;;;5017788;28;20195;-80
2023/09/19 00:50:28;;;;;;;8.32;2.60;;;16.30;99.90;;;;;;5018841;28;20199;-79
2023/09/19 00:52:59;;;;;;;8.02;2.83;;;16.30;99.90;;;;;;5019008;28;20206;-79
2023/09/19 00:55:27;;;;;;;6.75;2.55;;;16.20;99.90;;;;;;5017936;28;20234;-80
2023/09/19 00:57:56;;;;;;;9.30;2.47;;;16.40;99.90;;;;;;5017830;28;20215;-79
2023/09/19 01:00:24;;;;;;;8.25;2.33;;;16.30;99.90;;;;;;5028746;28;20222;-79
2023/09/19 01:02:52;;;;;;;8.13;2.28;;;16.30;99.90;;;;;;5018216;28;20204;-79
2023/09/19 01:05:20;;;;;;;7.97;1.88;;;16.20;99.90;;;;;;5016282;28;20227;-79
2023/09/19 01:07:48;;;;;;;5.60;1.80;;;16.30;99.90;;;;;;5032259;28;20588;-79
2023/09/19 01:10:21;;;;;;;10.27;2.83;;;16.20;99.90;;;;;;5016127;28;20195;-79
2023/09/19 01:13:00;;;;;;;8.05;2.42;;;16.20;99.90;;;;;;5018291;28;20202;-79
2023/09/19 01:15:51;;;;;;;8.77;2.30;;;16.10;99.90;;;;;;5015962;28;20219;-80
2023/09/19 01:18:30;;;;;;;7.72;2.20;;;16.10;99.90;;;;;;5015205;28;20200;-79
2023/09/19 01:21:06;;;;;;;9.20;2.42;;;16.10;99.90;;;;;;5018742;28;20674;-79
2023/09/19 01:23:57;;;;;;;5.40;2.17;;;16.00;99.90;;;;;;5019232;28;20214;-79
2023/09/19 01:26:43;;;;;;;6.43;2.50;;;16.00;99.90;;;;;;5036014;28;20215;-79
2023/09/19 01:29:29;;;;;;;10.13;2.38;;;16.00;99.90;;;;;;5033888;28;20196;-79
2023/09/19 01:32:02;;;;;;;7.25;2.08;;;16.00;99.90;;;;;;5020600;28;20204;-79
2023/09/19 01:34:46;;;;;;;7.25;2.25;;;16.00;99.90;;;;;;5021259;28;20219;-79
2023/09/19 01:37:18;;;;;;;7.70;2.40;;;16.00;99.90;;;;;;5022669;28;20543;-79
2023/09/19 01:39:48;;;;;;;8.90;2.65;;;16.00;99.90;;;;;;5039445;28;20203;-79
2023/09/19 01:42:25;;;;;;;10.35;2.83;;;15.90;99.90;;;;;;5022564;28;20196;-79
2023/09/19 01:45:00;;;;;;;9.02;2.05;;;15.90;99.90;;;;;;5022426;28;20790;-79
2023/09/19 01:47:36;;;;;;;5.40;2.00;;;16.00;99.90;;;;;;5023131;28;20215;-79
2023/09/19 01:50:19;;;;;;;9.52;2.33;;;16.00;99.90;;;;;;5014744;28;20682;-79
2023/09/19 01:52:54;;;;;;;6.30;2.17;;;15.90;99.90;;;;;;5019539;28;20203;-79
2023/09/19 01:55:23;;;;;;;8.43;2.83;;;16.10;99.90;;;;;;5019953;28;20219;-79
2023/09/19 01:57:59;;;;;;;6.28;2.80;;;16.00;99.90;;;;;;5022410;28;20212;-79
2023/09/19 02:00:29;;;;;;;7.15;2.47;;;15.90;99.90;;;;;;5019979;28;20207;-79
2023/09/19 02:03:00;;;;;;;4.15;2.13;;;15.90;99.90;;;;;;5022287;28;20199;-79
2023/09/19 02:05:28;;;;;;;7.80;2.40;;;15.90;99.90;;;;;;5020511;28;20596;-79
2023/09/19 02:07:56;;;;;;;5.63;2.25;;;15.80;99.90;;;;;;5038058;28;20199;-79
2023/09/19 02:10:24;;;;;;;4.82;2.33;;;15.90;99.90;;;;;;5019127;28;20211;-79
2023/09/19 02:12:51;;;;;;;7.97;2.28;;;15.80;99.90;;;;;;5020108;28;20249;-79
2023/09/19 02:15:19;;;;;;;5.05;2.20;;;15.80;99.90;;;;;;5021594;28;20227;-79
2023/09/19 02:17:47;;;;;;;7.47;2.03;;;15.80;99.90;;;;;;5037927;28;20200;-79
2023/09/19 02:20:16;;;;;;;5.80;2.42;;;15.90;99.90;;;;;;5018740;28;20200;-79
2023/09/19 02:22:45;;;;;;;9.07;2.25;;;15.70;99.90;;;;;;5033771;28;20210;-79
2023/09/19 02:25:13;;;;;;;6.18;2.58;;;15.70;99.90;;;;;;5019953;28;20220;-79
2023/09/19 02:27:41;;;;;;;8.52;2.92;;;15.70;99.90;;;;;;5035628;28;20622;-79
2023/09/19 02:30:09;;;;;;;9.55;2.00;;;15.70;99.90;;;;;;5016769;28;20200;-79
2023/09/19 02:32:38;;;;;;;7.63;2.45;;;15.70;99.90;;;;;;5019674;28;20598;-79
2023/09/19 02:35:10;;;;;;;8.55;2.80;;;15.60;99.90;;;;;;5035705;28;20234;-79
2023/09/19 02:37:39;;;;;;;9.32;3.08;;;15.60;99.90;;;;;;5019310;28;20219;-79
2023/09/19 02:40:18;;;;;;;8.10;2.42;;;15.60;99.90;;;;;;5032701;28;20211;-79
2023/09/19 02:42:49;;;;;;;7.97;2.53;;;15.50;99.90;;;;;;5014960;28;20210;-79
2023/09/19 02:45:21;;;;;;;9.38;2.80;;;15.60;99.90;;;;;;5020365;28;20226;-78
2023/09/19 02:47:49;;;;;;;12.75;3.20;;;15.60;99.90;;;;;;5020235;28;20226;-79
2023/09/19 02:50:17;;;;;;;11.27;2.78;;;15.50;99.90;;;;;;5019872;28;20200;-79
2023/09/19 02:52:48;;;;;;;8.60;2.45;;;15.60;99.90;;;;;;5033778;28;20200;-79
2023/09/19 02:55:19;;;;;;;6.13;1.80;;;15.60;99.90;;;;;;5016887;28;20587;-79
2023/09/19 02:57:47;;;;;;;7.70;2.63;;;15.60;99.90;;;;;;5017735;28;20191;-79
2023/09/19 03:00:16;;;;;;;6.97;2.08;;;15.60;99.90;;;;;;5013238;28;20199;-79
2023/09/19 03:02:46;;;;;;;6.25;1.98;;;15.50;99.90;;;;;;5033630;28;20203;-79
2023/09/19 03:05:14;;;;;;;9.13;2.42;;;15.50;99.90;;;;;;5016827;28;20231;-79
2023/09/19 03:07:42;;;;;;;7.65;2.72;;;15.60;99.90;;;;;;5021726;28;20676;-80
2023/09/19 03:10:12;;;;;;;9.48;2.67;;;15.60;99.90;;;;;;5035917;28;20199;-79
2023/09/19 03:12:40;;;;;;;8.35;2.28;;;15.50;99.90;;;;;;5020814;28;20191;-80
2023/09/19 03:15:09;;;;;;;6.93;2.35;;;15.50;99.90;;;;;;5021068;28;20223;-79
2023/09/19 03:17:37;;;;;;;8.82;2.75;;;15.50;99.90;;;;;;5019376;28;20200;-78
2023/09/19 03:20:08;;;;;;;8.40;2.55;;;15.50;99.90;;;;;;5018811;28;20196;-79
2023/09/19 03:22:36;;;;;;;7.65;2.63;;;15.50;99.90;;;;;;5020118;28;20199;-79
2023/09/19 03:25:07;;;;;;;7.22;2.40;;;15.40;99.90;;;;;;5018234;28;20231;-78
2023/09/19 03:27:38;;;;;;;8.63;2.70;;;15.40;99.90;;;;;;5035832;28;20219;-79
2023/09/19 03:30:08;;;;;;;7.22;2.25;;;15.50;99.90;;;;;;5019776;28;20199;-79
2023/09/19 03:32:36;;;;;;;5.43;2.25;;;15.40;99.90;;;;;;5020438;28;20200;-79
2023/09/19 03:35:11;;;;;;;7.85;2.42;;;15.30;99.90;;;;;;5035384;28;20232;-79
2023/09/19 03:37:38;;;;;;;9.10;2.42;;;15.40;99.90;;;;;;5020553;28;20200;-79
2023/09/19 03:40:07;;;;;;;7.63;2.03;;;15.30;99.90;;;;;;5019149;28;20196;-79
2023/09/19 03:42:38;;;;;;;9.18;2.05;;;15.50;99.90;;;;;;5019147;28;20207;-79
2023/09/19 03:45:07;;;;;;;6.20;1.90;;;15.30;99.90;;;;;;5019419;28;20611;-78
2023/09/19 03:47:35;;;;;;;6.38;2.10;;;15.30;99.90;;;;;;5018199;28;20227;-79
2023/09/19 03:50:05;;;;;;;9.20;2.40;;;15.30;99.90;;;;;;5036391;23;20224;-79
2023/09/19 03:52:32;;;;;;;10.13;3.17;;;15.30;99.90;;;;;;4999356;28;20218;-79
2023/09/19 03:55:00;;;;;;;7.47;2.63;;;15.30;99.90;;;;;;4995900;28;20208;-79
2023/09/19 03:57:27;;;;;;;9.73;3.58;;;15.30;99.90;;;;;;4996235;28;20200;-79
2023/09/19 03:59:56;;;;;;;8.40;2.78;;;15.30;99.90;;;;;;4997611;28;20221;-79
2023/09/19 04:02:24;;;;;;;4.35;2.13;;;15.20;99.90;;;;;;4984485;28;20594;-79
2023/09/19 04:04:52;;;;;;;6.35;2.03;;;15.20;99.90;;;;;;4984827;28;20200;-79
2023/09/19 04:07:22;;;;;;;6.40;2.20;;;15.20;99.90;;;;;;4988701;28;20231;-79
2023/09/19 04:09:49;;;;;;;8.02;2.10;;;15.20;99.90;;;;;;4991794;28;20227;-79
2023/09/19 04:12:17;;;;;;;6.53;2.47;;;15.20;99.90;;;;;;4991699;28;20197;-79
2023/09/19 04:14:47;;;;;;;10.57;2.53;;;15.20;99.90;;;;;;4977970;28;20212;-77
2023/09/19 04:17:18;;;;;;;7.13;2.10;;;15.10;99.90;;;;;;4986657;28;20650;-79
2023/09/19 04:19:45;;;;;;;9.98;2.40;;;15.10;99.90;;;;;;4978751;28;20212;-79
2023/09/19 04:22:13;;;;;;;6.82;2.05;;;15.20;99.90;;;;;;4984980;28;20200;-78
2023/09/19 04:24:40;;;;;;;5.90;2.17;;;15.10;99.90;;;;;;4980516;28;20201;-79
2023/09/19 04:27:09;;;;;;;9.13;2.33;;;15.20;99.90;;;;;;4997384;28;20549;-79
2023/09/19 04:29:37;;;;;;;9.38;2.72;;;15.10;99.90;;;;;;4998632;28;20208;-79
2023/09/19 04:32:05;;;;;;;7.22;2.42;;;15.10;99.90;;;;;;4985368;28;20667;-78
2023/09/19 04:34:35;;;;;;;4.85;2.22;;;15.10;99.90;;;;;;4987847;28;20211;-79
2023/09/19 04:37:03;;;;;;;6.60;1.98;;;15.20;99.90;;;;;;4993137;28;20204;-79
2023/09/19 04:39:30;;;;;;;6.00;2.40;;;15.10;99.90;;;;;;4994093;28;20219;-79
2023/09/19 04:41:59;;;;;;;8.52;2.22;;;15.10;99.90;;;;;;4985556;28;20207;-79
2023/09/19 04:44:26;;;;;;;8.23;2.30;;;15.10;99.90;;;;;;4989500;28;20204;-79
2023/09/19 04:46:54;;;;;;;7.30;2.13;;;15.10;99.90;;;;;;4982637;28;20219;-78
2023/09/19 04:49:21;;;;;;;6.80;2.22;;;15.10;99.90;;;;;;4983237;28;20209;-79
2023/09/19 04:51:50;;;;;;;7.40;2.38;;;15.10;99.90;;;;;;4979319;28;20227;-79
2023/09/19 04:54:18;;;;;;;8.75;2.42;;;15.10;99.90;;;;;;4985907;28;20197;-79
2023/09/19 04:56:45;;;;;;;10.27;2.55;;;15.00;99.90;;;;;;4982317;28;20201;-78
2023/09/19 04:59:12;;;;;;;7.70;2.17;;;15.00;99.90;;;;;;4985123;28;20200;-78
2023/09/19 05:01:40;;;;;;;9.38;2.65;;;15.10;99.90;;;;;;4978579;28;20221;-78
2023/09/19 05:04:07;;;;;;;7.05;2.50;;;15.10;99.90;;;;;;4977269;28;20201;-78
2023/09/19 05:06:35;;;;;;;8.85;2.22;;;15.00;99.90;;;;;;4990505;28;20673;-78
2023/09/19 05:09:05;;;;;;;6.78;2.03;;;15.00;99.90;;;;;;4978463;28;20209;-78
2023/09/19 05:11:33;;;;;;;9.50;2.53;;;15.10;99.90;;;;;;4985351;28;20236;-79
2023/09/19 05:14:03;;;;;;;6.25;2.10;;;15.10;99.90;;;;;;4986628;28;20208;-78
2023/09/19 05:16:31;;;;;;;9.43;2.78;;;15.10;99.90;;;;;;4990219;28;20212;-78
2023/09/19 05:18:59;;;;;;;6.13;2.20;;;15.00;99.90;;;;;;4990689;28;20208;-78
2023/09/19 05:21:28;;;;;;;5.70;2.20;;;15.00;99.90;;;;;;4990452;28;20682;-78
2023/09/19 05:23:56;;;;;;;10.77;2.72;;;15.10;99.90;;;;;;4985980;28;20651;-78
2023/09/19 05:26:25;;;;;;;8.82;2.15;;;15.10;99.90;;;;;;4986976;28;20571;-79
2023/09/19 05:28:56;;;;;;;9.07;2.05;;;15.10;99.90;;;;;;5000026;28;20227;-78
2023/09/19 05:31:26;;;;;;;7.72;2.42;;;15.00;99.90;;;;;;4992946;28;20268;-79
2023/09/19 05:33:54;;;;;;;8.85;2.10;;;15.00;99.90;;;;;;5002014;28;20204;-78
2023/09/19 05:36:21;;;;;;;8.65;2.53;;;15.10;99.90;;;;;;4994109;28;20205;-78
2023/09/19 05:38:54;;;;;;;9.73;2.60;;;15.10;99.90;;;;;;4995547;28;20208;-79
2023/09/19 05:41:21;;;;;;;6.20;2.10;;;15.10;99.90;;;;;;4995451;28;20231;-81
2023/09/19 05:43:54;;;;;;;12.77;2.88;;;15.00;99.90;;;;;;4989963;28;20567;-78
2023/09/19 05:46:22;;;;;;;5.38;2.28;;;15.10;99.90;;;;;;4984445;28;20208;-78
2023/09/19 05:48:52;;;;;;;8.02;2.40;;;15.10;99.90;;;;;;4991219;28;20228;-78
2023/09/19 05:51:22;;;;;;;6.03;2.30;;;15.10;99.90;;;;;;4998917;28;20243;-78
2023/09/19 05:53:50;;;;;;;9.77;2.38;;;15.10;99.90;;;;;;5006709;28;20220;-78
2023/09/19 05:56:18;;;;;;;10.07;2.65;;;15.20;99.90;;;;;;4990088;28;20205;-78
2023/09/19 05:58:46;;;;;;;7.47;2.45;;;15.20;99.90;;;;;;4991195;28;20205;-78
2023/09/19 06:01:15;;;;;;;9.95;2.78;;;15.10;99.90;;;;;;4991129;28;20239;-77
2023/09/19 06:03:42;;;;;;;6.43;2.47;;;15.20;99.90;;;;;;4988593;28;20218;-78
2023/09/19 06:06:10;;;;;;;8.15;2.78;;;15.20;99.90;;;;;;4993362;28;20658;-78
2023/09/19 06:08:39;;;;;;;8.95;2.67;;;15.30;99.90;;;;;;4983265;28;20225;-78
2023/09/19 06:11:09;;;;;;;9.93;2.83;;;15.30;99.90;;;;;;4987161;28;20228;-78
2023/09/19 06:13:39;;;;;;;7.70;2.22;;;15.30;99.90;;;;;;4989380;28;20212;-78
2023/09/19 06:16:06;;;;;;;6.05;2.15;;;15.30;99.90;;;;;;4976013;28;20207;-78
2023/09/19 06:18:36;;;;;;;8.57;2.55;;;15.30;99.90;;;;;;4985969;28;20208;-78
2023/09/19 06:21:07;;;;;;;7.47;2.20;;;15.40;99.90;;;;;;4985327;28;20594;-78
2023/09/19 06:23:35;;;;;;;5.50;1.92;;;15.40;99.90;;;;;;4991198;28;20216;-78
2023/09/19 06:26:03;;;;;;;7.78;2.20;;;15.30;99.90;;;;;;5003546;28;20211;-78
2023/09/19 06:28:30;;;;;;;7.88;2.85;;;15.40;99.90;;;;;;4991587;28;20224;-78
2023/09/19 06:30:58;;;;;;;5.90;2.20;;;15.30;99.90;;;;;;4983986;28;20228;-78
2023/09/19 06:33:31;;;;;;;9.38;2.42;;;15.40;99.90;;;;;;4985115;28;20208;-77
2023/09/19 06:36:00;;;;;;;3.97;2.00;;;15.30;99.90;;;;;;4988073;28;20205;-77
2023/09/19 06:38:29;;;;;;;7.20;2.22;;;15.40;99.90;;;;;;4991605;28;20204;-78
2023/09/19 06:40:57;;;;;;;7.75;2.47;;;15.40;99.90;;;;;;4999823;28;20221;-78
2023/09/19 06:43:30;;;;;;;7.70;2.58;;;15.50;99.90;;;;;;4993481;28;20219;-79
2023/09/19 06:45:58;;;;;;;9.90;2.40;;;15.40;99.90;;;;;;4984211;28;20663;-78
2023/09/19 06:48:29;;;;;;;7.57;2.00;;;15.40;99.90;;;;;;4979164;28;20221;-78
2023/09/19 06:50:58;;;;;;;12.13;2.97;;;15.40;99.90;;;;;;4990423;28;20239;-79
2023/09/19 06:53:27;;;;;;;6.93;2.45;;;15.50;99.90;;;;;;4985364;28;20208;-82
2023/09/19 06:55:54;;;;;;;8.95;2.58;;;15.50;99.90;;;;;;4989987;28;20208;-79
2023/09/19 06:58:22;;;;;;;10.65;2.50;;;15.50;99.90;;;;;;4982139;28;20209;-77
2023/09/19 07:00:50;;;;;;;9.60;2.17;;;15.50;99.90;;;;;;4972688;28;20221;-76
2023/09/19 07:03:20;;;;;;;11.77;3.67;;;15.60;99.90;;;;;;4989718;28;20207;-77
2023/09/19 07:05:48;;;;;;;8.63;2.60;;;15.70;99.90;;;;;;4984045;28;20579;-77
2023/09/19 07:08:16;;;;;;;7.57;2.00;;;15.70;99.90;;;;;;4982441;28;20308;-78
2023/09/19 07:10:54;;;;;;;12.50;4.43;;;15.80;99.90;;;;;;4975828;28;20585;-76
2023/09/19 07:13:21;;;;;;;9.90;2.83;;;16.10;99.90;;;;;;4988958;28;20200;-76
2023/09/19 07:15:49;;;;;;;7.82;2.30;;;16.00;99.90;;;;;;4974387;28;20196;-77
2023/09/19 07:18:18;;;;;;;8.93;3.17;;;15.90;99.90;;;;;;4980684;28;20193;-77
2023/09/19 07:21:01;;;;;;;7.40;2.50;;;15.90;99.90;;;;;;4973842;28;20236;-77
2023/09/19 07:23:29;;;;;;;10.57;2.60;;;16.50;99.90;;;;;;4973668;28;20197;-76
2023/09/19 07:26:05;;;;;;;10.88;3.15;;;16.00;99.90;;;;;;4972803;28;20205;-76
2023/09/19 07:28:35;;;;;;;9.65;2.83;;;15.90;99.90;;;;;;4972902;28;20213;-76
2023/09/19 07:31:04;;;;;;;8.20;2.10;;;16.30;99.90;;;;;;4987600;28;20208;-78
2023/09/19 07:33:32;;;;;;;12.30;2.75;;;16.00;99.90;;;;;;4985323;28;20565;-78
2023/09/19 07:36:00;;;;;;;7.93;2.22;;;15.90;99.90;;;;;;4987997;28;20203;-78
2023/09/19 07:38:27;;;;;;;10.90;2.65;;;15.90;99.90;;;;;;4978684;28;20205;-79
2023/09/19 07:41:03;;;;;;;6.53;2.55;;;16.00;99.90;;;;;;4979106;28;20225;-78
2023/09/19 07:43:30;;;;;;;10.32;2.67;;;15.90;99.90;;;;;;4998396;28;20212;-78
2023/09/19 07:46:00;;;;;;;8.90;2.55;;;15.90;99.90;;;;;;5003015;28;20215;-79
2023/09/19 07:48:28;;;;;;;6.63;2.70;;;16.00;99.90;;;;;;4982893;28;20212;-79
2023/09/19 07:50:55;;;;;;;11.88;2.97;;;16.00;99.90;;;;;;4978524;28;20235;-78
2023/09/19 07:53:23;;;;;;;6.13;2.55;;;16.00;99.90;;;;;;4981507;28;20658;-78
2023/09/19 07:55:50;;;;;;;6.70;2.33;;;16.10;99.90;;;;;;4982625;28;20212;-78
2023/09/19 07:58:19;;;;;;;7.68;2.97;;;16.10;99.90;;;;;;4983164;28;20208;-77
2023/09/19 08:00:47;;;;;;;12.60;3.38;;;16.10;99.90;;;;;;4974921;28;20232;-78
2023/09/19 08:03:14;;;;;;;9.80;2.53;;;16.10;99.90;;;;;;4974808;28;20205;-78
2023/09/19 08:05:43;;;;;;;10.35;2.50;;;16.10;99.90;;;;;;4994223;28;20227;-78
2023/09/19 08:08:10;;;;;;;10.48;2.50;;;16.10;99.90;;;;;;4982919;28;20208;-78
2023/09/19 08:10:39;;;;;;;10.65;2.55;;;16.20;99.90;;;;;;4974131;28;20221;-79
2023/09/19 08:13:11;;;;;;;9.88;2.58;;;16.20;99.90;;;;;;4976240;28;20678;-78
2023/09/19 08:15:44;;;;;;;6.25;2.00;;;16.20;99.90;;;;;;4974683;28;20667;-79
2023/09/19 08:18:12;;;;;;;7.25;2.97;;;16.20;99.90;;;;;;4981027;28;20207;-78
2023/09/19 08:20:42;;;;;;;7.97;2.30;;;16.20;99.90;;;;;;4985566;28;20225;-78
2023/09/19 08:23:09;;;;;;;7.40;3.00;;;16.30;99.90;;;;;;4985795;28;20203;-78
2023/09/19 08:25:39;;;;;;;10.35;2.72;;;16.30;99.90;;;;;;4993093;28;20200;-79
2023/09/19 08:28:11;;;;;;;13.38;2.60;;;16.40;99.90;;;;;;4988287;28;20204;-79
2023/09/19 08:30:41;;;;;;;6.93;2.03;;;16.30;99.90;;;;;;4981328;28;20239;-79
2023/09/19 08:33:09;;;;;;;8.23;2.30;;;16.40;99.90;;;;;;4992796;28;20200;-78
2023/09/19 08:35:37;;;;;;;9.30;2.40;;;16.30;99.90;;;;;;4984925;28;20216;-78
2023/09/19 08:38:05;;;;;;;6.78;2.13;;;16.30;99.90;;;;;;4982429;28;20615;-79
2023/09/19 08:40:34;;;;;;;7.22;2.65;;;16.40;99.90;;;;;;4985328;28;20229;-79
2023/09/19 08:43:01;;;;;;;12.65;4.55;;;16.50;99.90;;;;;;4978484;28;20201;-78
2023/09/19 08:45:29;;;;;;;11.73;2.70;;;16.50;99.90;;;;;;4982786;28;20204;-79
2023/09/19 08:48:11;;;;;;;11.27;3.08;;;16.60;99.90;;;;;;4981408;28;20701;-78
2023/09/19 08:50:44;;;;;;;4.90;2.08;;;16.60;99.90;;;;;;4990861;28;20240;-78
2023/09/19 08:53:18;;;;;;;7.13;2.70;;;16.60;99.90;;;;;;4991353;28;20207;-79
2023/09/19 08:55:48;;;;;;;6.13;2.03;;;16.60;99.90;;;;;;4981893;28;20208;-79
2023/09/19 08:58:21;;;;;;;11.13;2.35;;;16.60;99.90;;;;;;4987715;28;20551;-78
2023/09/19 09:00:51;;;;;;;10.60;2.50;;;16.60;99.90;;;;;;4985284;28;20227;-78
2023/09/19 09:03:22;;;;;;;10.50;2.58;;;16.60;99.90;;;;;;4980151;28;20200;-78
2023/09/19 09:05:52;;;;;;;7.35;2.67;;;16.70;99.90;;;;;;4984539;28;20196;-79
2023/09/19 09:08:21;;;;;;;6.47;2.13;;;16.90;99.90;;;;;;4978233;28;20211;-78
2023/09/19 09:10:49;;;;;;;8.77;2.38;;;16.90;99.90;;;;;;4988610;28;20247;-78
2023/09/19 09:13:17;;;;;;;10.52;2.50;;;16.90;99.90;;;;;;4980872;28;20220;-79
2023/09/19 09:15:45;;;;;;;8.75;2.70;;;16.90;99.90;;;;;;4979898;28;20205;-78
2023/09/19 09:18:13;;;;;;;6.65;2.10;;;17.00;99.90;;;;;;4976741;28;20205;-78
2023/09/19 09:20:44;;;;;;;12.85;3.03;;;17.10;99.90;;;;;;4982291;28;20221;-79
2023/09/19 09:23:13;;;;;;;10.25;2.55;;;17.20;99.90;;;;;;4976010;28;20196;-79
2023/09/19 09:25:56;;;;;;;5.93;2.72;;;17.30;99.90;;;;;;4984187;28;20224;-78
2023/09/19 09:28:26;;;;;;;9.25;3.03;;;17.30;99.90;;;;;;4984914;28;20570;-78
2023/09/19 09:30:54;;;;;;;5.40;1.88;;;17.30;99.90;;;;;;4987458;28;20429;-79
2023/09/19 09:33:22;;;;;;;8.63;2.92;;;17.30;99.90;;;;;;4989236;28;20208;-78
2023/09/19 09:35:53;;;;;;;9.55;2.60;;;17.30;99.90;;;;;;4977985;28;20196;-78
2023/09/19 09:38:25;;;;;;;6.68;2.30;;;17.40;99.90;;;;;;4974863;28;20205;-78
2023/09/19 09:40:59;;;;;;;7.63;2.63;;;17.50;99.90;;;;;;4977028;28;20228;-79
2023/09/19 09:43:35;;;;;;;8.60;2.30;;;17.50;99.90;;;;;;4988323;28;20580;-79
2023/09/19 09:49:19;;;;;;;7.40;2.10;;;17.70;99.90;;;;;;4994533;28;20217;-78
2023/09/19 09:51:59;;;;;;;8.57;2.63;;;17.70;99.90;;;;;;4986373;28;20227;-78
2023/09/19 09:54:34;;;;;;;6.72;2.15;;;17.70;99.90;;;;;;4983866;28;20212;-78
2023/09/19 09:57:13;;;;;;;11.35;2.05;;;17.70;99.90;;;;;;4994968;28;20219;-79
2023/09/19 09:59:49;;;;;;;5.65;2.05;;;17.60;99.90;;;;;;4995939;28;20207;-79
2023/09/19 10:02:24;;;;;;;8.93;2.78;;;17.60;99.90;;;;;;4978687;28;20209;-78
2023/09/19 10:04:59;;;;;;;12.82;2.88;;;17.70;99.90;;;;;;4989953;28;20205;-79
2023/09/19 10:07:32;;;;;;;9.27;2.70;;;18.10;99.90;;;;;;4992335;28;20197;-78
2023/09/19 10:10:12;;;;;;;5.43;2.20;;;18.20;99.90;;;;;;4992339;28;20228;-78
2023/09/19 10:12:43;;;;;;;7.50;2.55;;;18.20;99.90;;;;;;4984932;28;20200;-78
2023/09/19 10:15:16;;;;;;;9.40;2.35;;;18.30;99.90;;;;;;4991738;28;20207;-78
2023/09/19 10:17:45;;;;;;;6.60;2.30;;;18.50;99.90;;;;;;4984673;28;20200;-78
2023/09/19 10:20:33;;;;;;;12.95;2.78;;;18.40;99.90;;;;;;4984690;28;20221;-78
2023/09/19 10:23:10;;;;;;;6.47;1.95;;;18.40;99.90;;;;;;4984749;28;20205;-76
2023/09/19 10:25:39;;;;;;;8.73;2.25;;;18.70;99.90;;;;;;4977261;28;20209;-78
2023/09/19 10:28:10;;;;;;;6.53;2.42;;;18.80;99.90;;;;;;4990475;28;20547;-78
2023/09/19 10:30:52;;;;;;;7.80;2.10;;;18.80;99.90;;;;;;4991003;28;20221;-77
2023/09/19 10:33:21;;;;;;;7.60;2.53;;;18.90;99.90;;;;;;4983830;28;20204;-78
2023/09/19 10:35:52;;;;;;;6.90;2.22;;;18.80;99.90;;;;;;4985259;28;20189;-77
2023/09/19 10:38:24;;;;;;;6.78;2.05;;;18.60;99.90;;;;;;4979452;28;20212;-77
2023/09/19 10:40:55;;;;;;;8.75;2.38;;;18.50;99.90;;;;;;4988185;28;20235;-78
2023/09/19 10:43:27;;;;;;;7.43;2.78;;;18.40;99.90;;;;;;4981912;28;20667;-78
2023/09/19 10:46:03;;;;;;;5.35;2.03;;;18.40;99.90;;;;;;4978439;28;20694;-78
2023/09/19 10:48:31;;;;;;;4.80;2.28;;;18.40;99.90;;;;;;4989843;28;20196;-78
2023/09/19 10:51:05;;;;;;;7.13;2.15;;;18.40;99.90;;;;;;4992554;28;20223;-80
2023/09/19 10:53:46;;;;;;;5.78;2.25;;;18.40;99.90;;;;;;4990622;28;20213;-79
2023/09/19 10:56:32;;;;;;;8.48;2.40;;;18.50;99.90;;;;;;4985393;28;20196;-80
2023/09/19 10:59:08;;;;;;;9.63;2.28;;;18.80;99.90;;;;;;4992965;28;20206;-79
2023/09/19 11:01:56;;;;;;;7.03;2.25;;;18.80;99.90;;;;;;4988778;28;20211;-79
2023/09/19 11:04:26;;;;;;;7.30;2.17;;;18.90;99.90;;;;;;4985408;28;20204;-79
2023/09/19 11:07:04;;;;;;;8.38;2.20;;;19.00;99.90;;;;;;4992239;28;20677;-80
2023/09/19 11:09:47;;;;;;;8.82;2.10;;;18.80;99.90;;;;;;4995195;28;20184;-80
2023/09/19 11:12:49;;;;;;;4.65;1.85;;;18.90;99.90;;;;;;4983144;28;20204;-80
2023/09/19 11:16:04;;;;;;;7.22;2.30;;;18.70;99.90;;;;;;4984979;28;20204;-79
2023/09/19 11:18:57;;;;;;;7.20;2.15;;;18.90;99.90;;;;;;4926917;29;20540;-80
2023/09/19 11:21:58;;;;;;;6.35;2.50;;;19.10;99.90;;;;;;4936890;29;20221;-79
2023/09/19 11:24:37;;;;;;;6.20;2.00;;;19.30;99.90;;;;;;4924190;29;20233;-80
2023/09/19 11:27:14;;;;;;;7.13;2.10;;;19.00;99.90;;;;;;4933972;29;20204;-79
2023/09/19 11:29:42;;;;;;;8.43;3.03;;;19.20;99.90;;;;;;4961953;28;20211;-79
2023/09/19 11:32:12;;;;;;;6.35;2.13;;;19.30;99.90;;;;;;4988399;28;20669;-79
2023/09/19 11:34:45;;;;;;;8.45;1.65;;;19.50;99.90;;;;;;4982598;28;20201;-79
2023/09/19 11:38:16;;;;;;;5.35;2.20;;;19.60;99.90;;;;;;4999114;28;20196;-79
2023/09/19 11:40:55;;;;;;;4.88;2.22;;;19.60;99.90;;;;;;4992344;28;20219;-80
2023/09/19 11:43:35;;;;;;;6.65;2.25;;;19.20;99.90;;;;;;4988206;28;20203;-79
2023/09/19 11:46:10;;;;;;;8.55;2.33;;;19.30;99.90;;;;;;4982468;28;20193;-79
2023/09/19 11:48:41;;;;;;;4.43;1.83;;;19.60;99.90;;;;;;4976582;28;20206;-79
2023/09/19 11:51:22;;;;;;;8.52;2.45;;;19.80;99.90;;;;;;4991175;28;20231;-80
2023/09/19 11:53:50;;;;;;;5.32;1.75;;;19.40;99.90;;;;;;4984162;28;20196;-79
2023/09/19 11:56:20;;;;;;;5.72;2.13;;;19.60;99.90;;;;;;4983781;28;20553;-79
2023/09/19 11:58:53;;;;;;;7.80;2.70;;;19.80;99.90;;;;;;4979550;28;20208;-79
2023/09/19 12:01:28;;;;;;;6.45;2.83;;;19.80;99.90;;;;;;4987647;28;20261;-80
2023/09/19 12:03:58;;;;;;;6.38;2.30;;;19.60;99.90;;;;;;4987232;28;20200;-79
2023/09/19 12:06:27;;;;;;;6.07;2.00;;;19.60;99.90;;;;;;4984808;28;20200;-80
2023/09/19 12:08:55;;;;;;;4.88;2.00;;;19.70;99.90;;;;;;4991428;28;20211;-79
2023/09/19 12:11:24;;;;;;;8.02;2.35;;;19.50;99.90;;;;;;4980825;28;20220;-80
2023/09/19 12:13:53;;;;;;;5.45;1.95;;;19.50;99.90;;;;;;4991361;28;20215;-80
2023/09/19 12:16:22;;;;;;;9.52;2.03;;;19.50;99.90;;;;;;4978055;28;20209;-80
2023/09/19 12:18:51;;;;;;;6.65;2.20;;;19.60;99.90;;;;;;4983235;28;20216;-80
2023/09/19 12:21:28;;;;;;;5.50;2.40;;;19.50;99.90;;;;;;4987401;28;20219;-79
2023/09/19 12:24:00;;;;;;;7.90;2.42;;;19.60;99.90;;;;;;4992543;28;20192;-80
2023/09/19 12:26:29;;;;;;;8.15;2.63;;;20.00;99.80;;;;;;4981255;28;20563;-80
2023/09/19 12:29:12;;;;;;;5.60;2.58;;;20.00;99.90;;;;;;4984850;28;20211;-80
2023/09/19 12:31:58;;;;;;;8.98;2.50;;;20.10;99.10;;;;;;4985300;28;20235;-80
2023/09/19 12:34:28;;;;;;;5.78;2.03;;;20.00;98.10;;;;;;4986883;28;20200;-80
2023/09/19 12:37:12;;;;;;;5.28;1.92;;;20.10;96.90;;;;;;4985244;28;20200;-79
2023/09/19 12:39:42;;;;;;;5.15;2.08;;;20.20;97.20;;;;;;4981262;28;20215;-81
2023/09/19 12:42:13;;;;;;;3.60;1.73;;;20.40;97.30;;;;;;4982833;28;20197;-78
2023/09/19 12:44:47;;;;;;;6.82;2.25;;;20.50;96.60;;;;;;4995246;28;20204;-77
2023/09/19 12:47:30;;;;;;;4.63;1.75;;;20.60;96.60;;;;;;4983315;28;20196;-78
2023/09/19 12:50:07;;;;;;;6.35;2.03;;;20.50;96.10;;;;;;4980236;28;20225;-78
2023/09/19 12:52:38;;;;;;;7.35;1.58;;;20.80;96.20;;;;;;4992241;28;20212;-78
2023/09/19 12:55:07;;;;;;;4.30;1.60;;;20.60;96.00;;;;;;4991493;28;20204;-79
2023/09/19 12:57:35;;;;;;;8.30;2.28;;;21.00;95.50;;;;;;4986298;28;20212;-79
2023/09/19 13:00:05;;;;;;;4.03;1.70;;;20.60;95.60;;;;;;4989348;28;20575;-79
2023/09/19 13:02:33;;;;;;;3.20;1.90;;;21.10;95.60;;;;;;4975481;28;20215;-78
2023/09/19 13:05:04;;;;;;;4.00;1.98;;;21.30;94.50;;;;;;4992228;28;20204;-79
2023/09/19 13:07:43;;;;;;;4.20;1.73;;;21.20;94.40;;;;;;4984154;28;20207;-79
2023/09/19 13:10:11;;;;;;;3.83;1.95;;;21.20;94.80;;;;;;4991705;28;20693;-78